Aeroporto :
LOGIN :

Iscrizione | Disclaimer

   EN    FR    IT 

 










Sommario :    VFR   VFR Marginale   IFR   IFR Intensivo   IFR Molto Intensivo
Visibilità : 
Base nubi : 
>= 8 km
>= 3000ft
5 / 8 km
1000 / 3000 ft
1500m / 5 km
500 / 1000 ft
800 / 1500m
200 / 500 ft
< 800m
< 200 ft
Simboli :   Temporali  Nebbia  Neve Forte  Precipitazioni Forti  Vento > 20 kt
SIGMETs :   Varie  Temporali  Ghiacco  Turbolenza  Onda orograficha  Ceneri Vulcaniche






- Altitudine del aeroporto : 308 ft
- Codice IATA : POZ


EPPO - Poznan-Lawica

ULTIMO METAR :
  • 020600Z 12009KT 7000 BKN046 08/07 Q1008

METARs OBSOLETI :
  • 020530Z 11010KT 7000 OVC040 08/07 Q1008
  • 020500Z 11011KT 7000 OVC046 09/07 Q1008
  • 020430Z 13010KT 6000 OVC047 09/08 Q1008
  • 012100Z 13009KT 4700 -RA BR NSC 10/09 Q1009
  • 020400Z 11010KT 6000 FEW008 OVC041 09/08 Q1008
  • 020330Z 12012KT 5000 BR FEW007 OVC039 09/08 Q1008
  • 020300Z 12010KT 5000 BR BKN006 OVC040 09/08 Q1008
  • 020230Z 12009KT 4000 BR BKN006 OVC049 09/08 Q1008
  • 020200Z 11012KT 3700 BR OVC005 09/08 Q1008
  • 020130Z 11010KT 3500 BR OVC005 09/09 Q1008

TAF TAF EPPO
Valido dal 02 a 06 ore il 03 a 06 ore UTC


020530Z 0206/0306 13008KT 9999 BKN033
PROB30
TEMPO 0223/0306 4500 BR



MetMap, La meteo Aeronautica in un colpo d'occhio ! - Copyright ORBIFLY Dicembre 2007 - Disclaimer

ORBIFLY MET'MAP TEAM :

Programmazione e sviluppo : Alexandra Zaïnal
Concezione : Baudouin d'Aumeries
Supporto tecnico e logistico : Manuel Goepfert
Aiuto : Marc-Olivier Méhu
Aiuto per la traduzione : Arnaldo La Scala




FONTI E CREDITI :

   NOAA